createdAt,value
2022-11-17T00:01:19.688Z,99569.72
2022-11-17T00:03:47.331Z,99563.44
2022-11-17T00:06:14.014Z,99567.16
2022-11-17T00:08:40.685Z,99570.50
2022-11-17T00:11:07.278Z,99581.09
2022-11-17T00:13:52.060Z,99577.03
2022-11-17T00:16:20.054Z,99565.13
2022-11-17T00:19:05.030Z,99578.94
2022-11-17T00:21:32.176Z,99585.84
2022-11-17T00:23:58.886Z,99578.66
2022-11-17T00:26:31.554Z,99581.25
2022-11-17T00:29:00.588Z,99577.91
2022-11-17T00:31:47.642Z,99578.44
2022-11-17T00:34:20.167Z,99574.59
2022-11-17T00:36:54.281Z,99574.59
2022-11-17T00:39:22.889Z,99577.25
2022-11-17T00:41:50.105Z,99579.97
2022-11-17T00:44:17.163Z,99584.19
2022-11-17T00:46:44.368Z,99588.13
2022-11-17T00:49:12.062Z,99577.28
2022-11-17T00:51:38.576Z,99573.06
2022-11-17T00:54:06.875Z,99586.59
2022-11-17T00:56:33.735Z,99592.69
2022-11-17T00:59:00.459Z,99600.75
2022-11-17T01:01:27.286Z,99605.22
2022-11-17T01:04:03.300Z,99602.03
2022-11-17T01:06:40.481Z,99602.91
2022-11-17T01:09:12.049Z,99610.09
2022-11-17T01:11:38.805Z,99612.09
2022-11-17T01:14:05.241Z,99604.69
2022-11-17T01:16:32.807Z,99612.19
2022-11-17T01:19:02.414Z,99620.00
2022-11-17T01:21:30.405Z,99625.84
2022-11-17T01:23:59.400Z,99618.69
2022-11-17T01:26:28.667Z,99621.31
2022-11-17T01:28:55.362Z,99628.47
2022-11-17T01:31:24.921Z,99628.81
2022-11-17T01:33:51.634Z,99634.22
2022-11-17T01:36:19.628Z,99632.06
2022-11-17T01:38:46.189Z,99632.41
2022-11-17T01:41:15.976Z,99630.94
2022-11-17T01:43:46.032Z,99635.44
2022-11-17T01:46:32.293Z,99628.47
2022-11-17T01:49:07.508Z,99625.91
2022-11-17T01:51:37.605Z,99621.53
2022-11-17T01:54:04.388Z,99616.34
2022-11-17T01:56:38.834Z,99612.03
2022-11-17T01:59:14.947Z,99613.97
2022-11-17T02:01:55.581Z,99622.91
2022-11-17T02:04:29.560Z,99622.41
2022-11-17T02:07:25.248Z,99614.91
2022-11-17T02:09:53.498Z,99622.56
2022-11-17T02:12:21.653Z,99617.69
2022-11-17T02:14:51.325Z,99621.63
2022-11-17T02:17:19.496Z,99625.06
2022-11-17T02:19:54.568Z,99627.03
2022-11-17T02:22:30.006Z,99621.28
2022-11-17T02:25:30.949Z,99600.03
2022-11-17T02:28:13.350Z,99595.81
2022-11-17T02:31:02.941Z,99608.00
2022-11-17T02:33:47.459Z,99613.97
2022-11-17T02:36:43.966Z,99592.25
2022-11-17T02:39:19.795Z,99587.19
2022-11-17T02:42:04.056Z,99577.22
2022-11-17T02:45:06.876Z,99582.56
2022-11-17T02:47:36.062Z,99588.31
2022-11-17T02:50:07.305Z,99581.13
2022-11-17T02:52:34.146Z,99578.09
2022-11-17T02:55:02.689Z,99575.38
2022-11-17T02:57:31.811Z,99578.47
2022-11-17T03:00:02.739Z,99583.25
2022-11-17T03:02:46.739Z,99587.44
2022-11-17T03:05:29.860Z,99590.91
2022-11-17T03:08:27.601Z,99577.59
2022-11-17T03:10:59.027Z,99577.84
2022-11-17T03:13:34.307Z,99571.44
2022-11-17T03:16:12.690Z,99568.13
2022-11-17T03:19:04.390Z,99568.66
2022-11-17T03:21:33.715Z,99571.16
2022-11-17T03:24:12.507Z,99569.38
2022-11-17T03:26:44.278Z,99570.44
2022-11-17T03:29:14.579Z,99595.19
2022-11-17T03:31:45.475Z,99588.66
2022-11-17T03:34:16.707Z,99591.09
2022-11-17T03:36:48.622Z,99599.53
2022-11-17T03:39:27.983Z,99603.84
2022-11-17T03:42:00.790Z,99599.09
2022-11-17T03:44:32.084Z,99623.75
2022-11-17T03:47:01.601Z,99617.63
2022-11-17T03:49:47.540Z,99610.22
2022-11-17T03:52:14.023Z,99608.34
2022-11-17T03:54:41.058Z,99612.03
2022-11-17T03:57:20.407Z,99601.28
2022-11-17T03:59:57.062Z,99602.28
2022-11-17T04:02:25.756Z,99602.28
2022-11-17T04:05:07.697Z,99606.94
2022-11-17T04:07:42.529Z,99606.28
2022-11-17T04:10:12.009Z,99593.91
2022-11-17T04:12:57.345Z,99586.00
2022-11-17T04:15:42.500Z,99593.41
2022-11-17T04:18:09.268Z,99584.31
2022-11-17T04:20:38.262Z,99577.69
2022-11-17T04:23:09.266Z,99577.34
2022-11-17T04:26:05.932Z,99575.25
2022-11-17T04:28:37.670Z,99563.09
2022-11-17T04:31:06.468Z,99560.41
2022-11-17T04:33:33.977Z,99561.19
2022-11-17T04:36:00.845Z,99569.09
2022-11-17T04:38:27.296Z,99579.44
2022-11-17T04:41:12.064Z,99579.06
2022-11-17T04:43:41.692Z,99585.94
2022-11-17T04:46:08.173Z,99605.78
2022-11-17T04:48:34.596Z,99598.31
2022-11-17T04:51:01.023Z,99604.59
2022-11-17T04:53:29.932Z,99600.03
2022-11-17T04:56:03.632Z,99587.66
2022-11-17T04:58:30.468Z,99584.59
2022-11-17T05:01:12.147Z,99579.84
2022-11-17T05:03:49.893Z,99598.13
2022-11-17T05:06:28.246Z,99597.25
2022-11-17T05:08:56.608Z,99595.72
2022-11-17T05:11:46.556Z,99601.97
2022-11-17T05:14:15.126Z,99598.13
2022-11-17T05:17:04.545Z,99596.22
2022-11-17T05:19:36.153Z,99588.41
2022-11-17T05:22:03.205Z,99587.13
2022-11-17T05:24:29.640Z,99597.50
2022-11-17T05:26:56.133Z,99581.91
2022-11-17T05:29:23.145Z,99577.94
2022-11-17T05:31:49.780Z,99579.38
2022-11-17T05:34:17.516Z,99576.47
2022-11-17T05:36:44.489Z,99582.25
2022-11-17T05:39:10.978Z,99586.59
2022-11-17T05:41:37.473Z,99592.09
2022-11-17T05:44:04.683Z,99589.38
2022-11-17T05:46:31.106Z,99592.34
2022-11-17T05:48:57.545Z,99586.34
2022-11-17T05:51:24.647Z,99585.69
2022-11-17T05:53:51.362Z,99577.25
2022-11-17T05:56:38.780Z,99574.78
2022-11-17T05:59:17.277Z,99575.56
2022-11-17T06:01:52.959Z,99578.00
2022-11-17T06:04:20.505Z,99564.56
2022-11-17T06:06:48.340Z,99553.47
2022-11-17T06:09:15.692Z,99545.41
2022-11-17T06:11:42.185Z,99535.06
2022-11-17T06:14:08.781Z,99535.69
2022-11-17T06:16:40.127Z,99529.56
2022-11-17T06:19:13.393Z,99505.03
2022-11-17T06:22:09.700Z,99483.78
2022-11-17T06:24:26.539Z,99483.31
2022-11-17T06:26:53.084Z,99494.53
2022-11-17T06:29:19.760Z,99511.91
2022-11-17T06:31:46.438Z,99535.44
2022-11-17T06:34:13.066Z,99548.97
2022-11-17T06:36:39.934Z,99539.78
2022-11-17T06:39:06.417Z,99540.78
2022-11-17T06:41:32.862Z,99553.81
2022-11-17T06:43:59.349Z,99560.19
2022-11-17T06:46:37.765Z,99571.84
2022-11-17T06:49:08.080Z,99579.53
2022-11-17T06:51:35.593Z,99590.41
2022-11-17T06:54:03.886Z,99597.06
2022-11-17T06:56:30.545Z,99604.22
2022-11-17T06:58:57.102Z,99598.88
2022-11-17T07:01:23.888Z,99607.94
2022-11-17T07:03:50.548Z,99608.03
2022-11-17T07:06:19.055Z,99608.56
2022-11-17T07:08:45.713Z,99603.97
2022-11-17T07:11:15.068Z,99607.19
2022-11-17T07:13:41.642Z,99602.59
2022-11-17T07:16:11.970Z,99600.03
2022-11-17T07:18:41.574Z,99593.00
2022-11-17T07:21:13.853Z,99615.53
2022-11-17T07:23:42.467Z,99616.94
2022-11-17T07:26:09.212Z,99626.00
2022-11-17T07:28:36.088Z,99616.53
2022-11-17T07:31:05.372Z,99609.66
2022-11-17T07:33:33.573Z,99621.53
2022-11-17T07:36:09.687Z,99629.31
2022-11-17T07:38:38.377Z,99619.09
2022-11-17T07:41:06.796Z,99623.31
2022-11-17T07:43:34.465Z,99618.72
2022-11-17T07:46:10.761Z,99625.75
2022-11-17T07:48:37.826Z,99625.75
2022-11-17T07:51:05.125Z,99625.25
2022-11-17T07:53:34.504Z,99612.16
2022-11-17T07:56:09.347Z,99609.06
2022-11-17T07:58:36.941Z,99610.97
2022-11-17T08:01:07.355Z,99601.13
2022-11-17T08:03:33.980Z,99610.59
2022-11-17T08:06:05.640Z,99613.03
2022-11-17T08:08:33.176Z,99608.78
2022-11-17T08:11:08.205Z,99600.13
2022-11-17T08:13:35.383Z,99614.69
2022-11-17T08:16:02.196Z,99614.69
2022-11-17T08:18:29.955Z,99623.63
2022-11-17T08:21:09.916Z,99630.53
2022-11-17T08:23:37.571Z,99618.97
2022-11-17T08:26:06.128Z,99627.03
2022-11-17T08:28:34.202Z,99626.41
2022-11-17T08:31:05.607Z,99629.06
2022-11-17T08:33:32.481Z,99621.75
2022-11-17T08:36:00.534Z,99627.91
2022-11-17T08:38:29.247Z,99629.28
2022-11-17T08:41:01.974Z,99626.06
2022-11-17T08:43:28.818Z,99625.31
2022-11-17T08:45:55.467Z,99630.53
2022-11-17T08:48:22.179Z,99636.69
2022-11-17T08:50:49.869Z,99646.41
2022-11-17T08:53:19.092Z,99640.69
2022-11-17T08:55:46.112Z,99645.03
2022-11-17T08:58:13.031Z,99644.00
2022-11-17T09:00:40.572Z,99645.75
2022-11-17T09:03:10.747Z,99645.09
2022-11-17T09:05:39.768Z,99646.78
2022-11-17T09:08:37.837Z,99647.31
2022-11-17T09:10:53.952Z,99651.56
2022-11-17T09:13:20.443Z,99664.47
2022-11-17T09:15:47.326Z,99663.28
2022-11-17T09:18:13.964Z,99650.84
2022-11-17T09:20:45.490Z,99654.19
2022-11-17T09:23:12.478Z,99648.63
2022-11-17T09:25:38.952Z,99635.44
2022-11-17T09:28:05.440Z,99629.06
2022-11-17T09:30:31.913Z,99642.56
2022-11-17T09:32:58.331Z,99643.00
2022-11-17T09:35:24.826Z,99637.72
2022-11-17T09:37:51.324Z,99626.81
2022-11-17T09:40:19.746Z,99629.13
2022-11-17T09:42:46.797Z,99630.81
2022-11-17T09:45:28.079Z,99624.31
2022-11-17T09:48:33.419Z,99626.22
2022-11-17T09:50:55.975Z,99620.47
2022-11-17T09:53:29.308Z,99605.44
2022-11-17T09:56:03.704Z,99607.22
2022-11-17T09:58:53.712Z,99603.69
2022-11-17T10:01:22.238Z,99606.97
2022-11-17T10:03:51.285Z,99603.72
2022-11-17T10:06:21.880Z,99607.66
2022-11-17T10:09:00.692Z,99595.16
2022-11-17T10:11:37.604Z,99598.19
2022-11-17T10:14:10.807Z,99596.06
2022-11-17T10:16:39.190Z,99595.84
2022-11-17T10:19:16.596Z,99605.56
2022-11-17T10:21:43.120Z,99602.56
2022-11-17T10:24:09.750Z,99597.88
2022-11-17T10:26:46.097Z,99603.78
2022-11-17T10:29:14.237Z,99599.84
2022-11-17T10:31:45.736Z,99603.56
2022-11-17T10:34:24.317Z,99605.47
2022-11-17T10:36:53.318Z,99595.66
2022-11-17T10:39:38.618Z,99592.06
2022-11-17T10:42:20.340Z,99589.72
2022-11-17T10:44:54.151Z,99593.09
2022-11-17T10:47:37.363Z,99586.72
2022-11-17T10:50:22.730Z,99584.34
2022-11-17T10:52:51.531Z,99585.69
2022-11-17T10:55:28.959Z,99581.34
2022-11-17T10:58:01.122Z,99585.81
2022-11-17T11:00:33.620Z,99588.84
2022-11-17T11:03:16.438Z,99588.94
2022-11-17T11:06:27.380Z,99583.13
2022-11-17T11:08:58.418Z,99582.66
2022-11-17T11:11:44.891Z,99577.84
2022-11-17T11:14:39.027Z,99577.28
2022-11-17T11:17:14.109Z,99576.16
2022-11-17T11:19:50.111Z,99580.06
2022-11-17T11:22:41.353Z,99567.66
2022-11-17T11:25:43.176Z,99574.00
2022-11-17T11:28:12.287Z,99575.13
2022-11-17T11:30:59.049Z,99561.38
2022-11-17T11:33:38.469Z,99554.84
2022-11-17T11:36:20.182Z,99548.81
2022-11-17T11:38:56.045Z,99543.19
2022-11-17T11:41:39.122Z,99547.88
2022-11-17T11:44:30.398Z,99553.34
2022-11-17T11:47:27.575Z,99558.31
2022-11-17T11:49:59.771Z,99563.91
2022-11-17T11:52:32.624Z,99560.91
2022-11-17T11:55:05.399Z,99558.31
2022-11-17T11:57:38.863Z,99550.78
2022-11-17T12:00:07.913Z,99558.19
2022-11-17T12:03:08.272Z,99551.16
2022-11-17T12:06:21.127Z,99545.91
2022-11-17T12:08:58.604Z,99549.69
2022-11-17T12:11:44.124Z,99553.25
2022-11-17T12:14:17.922Z,99541.47
2022-11-17T12:16:47.601Z,99540.19
2022-11-17T12:20:09.265Z,99542.88
2022-11-17T12:22:37.006Z,99534.34
2022-11-17T12:25:15.924Z,99527.53
2022-11-17T12:27:45.853Z,99528.72
2022-11-17T12:30:30.775Z,99537.53
2022-11-17T12:33:01.858Z,99525.34
2022-11-17T12:35:29.812Z,99523.59
2022-11-17T12:38:17.638Z,99536.03
2022-11-17T12:40:45.363Z,99544.56
2022-11-17T12:43:14.484Z,99535.47
2022-11-17T12:45:53.098Z,99533.69
2022-11-17T12:48:33.837Z,99540.81
2022-11-17T12:51:22.165Z,99534.78
2022-11-17T12:54:01.731Z,99536.34
2022-11-17T12:56:40.344Z,99537.22
2022-11-17T12:59:44.310Z,99532.50
2022-11-17T13:02:32.082Z,99521.41
2022-11-17T13:05:05.914Z,99523.19
2022-11-17T13:07:32.448Z,99516.03
2022-11-17T13:09:59.983Z,99525.47
2022-11-17T13:12:28.454Z,99519.81
2022-11-17T13:15:00.282Z,99514.06
2022-11-17T13:17:30.811Z,99514.28
2022-11-17T13:20:01.039Z,99513.66
2022-11-17T13:22:27.637Z,99512.91
2022-11-17T13:24:54.522Z,99516.25
2022-11-17T13:27:25.313Z,99510.50
2022-11-17T13:29:52.887Z,99521.69
2022-11-17T13:32:20.943Z,99516.25
2022-11-17T13:34:53.334Z,99510.31
2022-11-17T13:37:22.898Z,99504.88
2022-11-17T13:40:19.796Z,99505.75
2022-11-17T13:42:46.861Z,99499.19
2022-11-17T13:45:16.899Z,99496.03
2022-11-17T13:47:46.599Z,99488.41
2022-11-17T13:50:31.342Z,99488.59
2022-11-17T13:53:22.768Z,99481.16
2022-11-17T13:55:49.789Z,99475.81
2022-11-17T13:58:41.082Z,99471.25
2022-11-17T14:01:12.419Z,99469.56
2022-11-17T14:03:40.743Z,99472.25
2022-11-17T14:06:09.732Z,99470.69
2022-11-17T14:08:38.149Z,99469.88
2022-11-17T14:11:21.454Z,99468.78
2022-11-17T14:13:59.520Z,99477.00
2022-11-17T14:16:38.029Z,99477.00
2022-11-17T14:19:30.406Z,99489.00
2022-11-17T14:22:23.491Z,99496.56
2022-11-17T14:24:54.594Z,99490.41
2022-11-17T14:27:27.334Z,99495.63
2022-11-17T14:29:54.086Z,99488.91
2022-11-17T14:32:20.649Z,99481.28
2022-11-17T14:34:47.137Z,99482.47
2022-11-17T14:37:13.698Z,99468.97
2022-11-17T14:39:40.137Z,99468.38
2022-11-17T14:42:06.634Z,99460.75
2022-11-17T14:44:33.085Z,99470.09
2022-11-17T14:46:59.533Z,99471.56
2022-11-17T14:49:26.025Z,99488.41
2022-11-17T14:51:55.299Z,99481.28
2022-11-17T14:54:21.785Z,99478.50
2022-11-17T14:56:48.262Z,99487.13
2022-11-17T14:59:16.361Z,99488.19
2022-11-17T15:01:43.520Z,99486.44
2022-11-17T15:04:48.131Z,99491.47
2022-11-17T15:07:02.185Z,99495.56
2022-11-17T15:09:28.761Z,99506.56
2022-11-17T15:11:55.288Z,99506.25
2022-11-17T15:14:22.177Z,99503.56
2022-11-17T15:16:49.327Z,99506.84
2022-11-17T15:19:16.006Z,99512.69
2022-11-17T15:21:42.483Z,99513.47
2022-11-17T15:24:09.309Z,99510.13
2022-11-17T15:26:36.137Z,99505.97
2022-11-17T15:29:02.660Z,99506.72
2022-11-17T15:31:29.250Z,99513.47
2022-11-17T15:33:55.893Z,99524.47
2022-11-17T15:36:23.213Z,99525.03
2022-11-17T15:38:50.118Z,99526.63
2022-11-17T15:41:16.934Z,99525.03
2022-11-17T15:43:45.055Z,99519.91
2022-11-17T15:46:14.201Z,99517.25
2022-11-17T15:48:43.228Z,99508.81
2022-11-17T15:51:15.057Z,99508.91
2022-11-17T15:53:43.994Z,99513.75
2022-11-17T15:56:12.697Z,99509.09
2022-11-17T15:58:40.895Z,99509.78
2022-11-17T16:01:08.531Z,99507.78
2022-11-17T16:03:35.274Z,99511.06
2022-11-17T16:06:01.922Z,99504.91
2022-11-17T16:08:28.416Z,99515.03
2022-11-17T16:10:55.558Z,99508.06
2022-11-17T16:13:22.032Z,99514.81
2022-11-17T16:15:49.338Z,99503.50
2022-11-17T16:18:15.846Z,99502.53
2022-11-17T16:20:42.685Z,99497.28
2022-11-17T16:23:09.388Z,99488.28
2022-11-17T16:25:44.067Z,99483.44
2022-11-17T16:28:11.655Z,99487.47
2022-11-17T16:30:38.555Z,99480.34
2022-11-17T16:33:11.590Z,99484.41
2022-11-17T16:35:39.137Z,99491.81
2022-11-17T16:38:05.759Z,99490.81
2022-11-17T16:40:33.965Z,99484.25
2022-11-17T16:43:00.895Z,99477.16
2022-11-17T16:45:27.400Z,99484.25
2022-11-17T16:47:53.883Z,99494.09
2022-11-17T16:50:20.467Z,99494.16
2022-11-17T16:52:47.009Z,99500.63
2022-11-17T16:55:13.498Z,99491.19
2022-11-17T16:57:40.015Z,99493.19
2022-11-17T17:00:07.462Z,99497.53
2022-11-17T17:02:34.648Z,99489.03
2022-11-17T17:05:01.212Z,99488.94
2022-11-17T17:07:27.758Z,99484.38
2022-11-17T17:09:54.345Z,99492.91
2022-11-17T17:12:20.842Z,99495.56
2022-11-17T17:14:47.496Z,99500.13
2022-11-17T17:17:14.062Z,99492.97
2022-11-17T17:19:40.521Z,99512.09
2022-11-17T17:22:07.020Z,99512.19
2022-11-17T17:24:34.704Z,99514.88
2022-11-17T17:27:01.122Z,99503.69
2022-11-17T17:29:27.640Z,99505.47
2022-11-17T17:31:54.113Z,99496.09
2022-11-17T17:34:20.588Z,99496.75
2022-11-17T17:36:47.098Z,99498.34
2022-11-17T17:39:15.682Z,99512.00
2022-11-17T17:41:44.291Z,99508.53
2022-11-17T17:44:18.169Z,99503.19
2022-11-17T17:46:45.576Z,99509.31
2022-11-17T17:49:12.576Z,99510.69
2022-11-17T17:51:43.071Z,99514.94
2022-11-17T17:54:20.629Z,99517.41
2022-11-17T17:56:47.818Z,99524.56
2022-11-17T17:59:15.948Z,99523.09
2022-11-17T18:01:45.711Z,99515.38
2022-11-17T18:04:15.777Z,99503.84
2022-11-17T18:06:47.038Z,99499.31
2022-11-17T18:09:15.525Z,99505.44
2022-11-17T18:11:45.986Z,99506.41
2022-11-17T18:14:13.366Z,99509.78
2022-11-17T18:16:40.554Z,99529.28
2022-11-17T18:19:08.700Z,99527.63
2022-11-17T18:21:35.642Z,99524.13
2022-11-17T18:24:03.036Z,99521.94
2022-11-17T18:26:31.673Z,99526.38
2022-11-17T18:29:03.727Z,99517.91
2022-11-17T18:31:32.416Z,99505.72
2022-11-17T18:34:04.859Z,99510.06
2022-11-17T18:36:31.584Z,99506.72
2022-11-17T18:39:00.844Z,99511.88
2022-11-17T18:41:30.757Z,99514.50
2022-11-17T18:43:57.808Z,99512.06
2022-11-17T18:46:25.550Z,99506.78
2022-11-17T18:48:52.888Z,99505.78
2022-11-17T18:51:24.805Z,99506.72
2022-11-17T18:53:54.006Z,99502.34
2022-11-17T18:56:23.029Z,99490.34
2022-11-17T18:58:49.650Z,99481.63
2022-11-17T19:01:17.442Z,99480.75
2022-11-17T19:03:45.950Z,99483.44
2022-11-17T19:06:13.365Z,99486.13
2022-11-17T19:08:39.897Z,99476.72
2022-11-17T19:11:08.368Z,99471.56
2022-11-17T19:13:36.832Z,99470.47
2022-11-17T19:16:14.553Z,99464.25
2022-11-17T19:18:41.836Z,99474.41
2022-11-17T19:21:10.773Z,99478.75
2022-11-17T19:23:39.644Z,99486.59
2022-11-17T19:26:08.990Z,99493.41
2022-11-17T19:28:35.597Z,99490.72
2022-11-17T19:31:07.737Z,99502.84
2022-11-17T19:33:36.558Z,99493.22
2022-11-17T19:36:05.389Z,99492.91
2022-11-17T19:38:33.901Z,99503.41
2022-11-17T19:41:15.124Z,99500.94
2022-11-17T19:43:45.534Z,99492.22
2022-11-17T19:46:14.924Z,99468.38
2022-11-17T19:48:42.185Z,99471.16
2022-11-17T19:51:29.464Z,99472.94
2022-11-17T19:54:04.425Z,99478.09
2022-11-17T19:56:31.473Z,99475.28
2022-11-17T19:58:58.269Z,99483.00
2022-11-17T20:01:27.574Z,99483.72
2022-11-17T20:03:55.307Z,99480.38
2022-11-17T20:06:25.628Z,99481.25
2022-11-17T20:08:53.078Z,99477.78
2022-11-17T20:11:25.016Z,99476.78
2022-11-17T20:13:51.556Z,99481.13
2022-11-17T20:16:21.345Z,99486.16
2022-11-17T20:18:54.899Z,99488.16
2022-11-17T20:21:22.174Z,99495.00
2022-11-17T20:23:49.299Z,99487.28
2022-11-17T20:26:22.765Z,99481.94
2022-11-17T20:28:49.966Z,99474.91
2022-11-17T20:31:21.573Z,99474.69
2022-11-17T20:33:48.982Z,99479.94
2022-11-17T20:36:17.987Z,99492.91
2022-11-17T20:38:45.278Z,99494.00
2022-11-17T20:41:11.744Z,99497.25
2022-11-17T20:43:38.317Z,99489.09
2022-11-17T20:46:04.943Z,99492.16
2022-11-17T20:48:34.155Z,99492.84
2022-11-17T20:51:02.112Z,99494.50
2022-11-17T20:53:29.202Z,99493.84
2022-11-17T20:55:57.011Z,99497.63
2022-11-17T20:58:27.330Z,99504.78
2022-11-17T21:00:54.687Z,99509.22
2022-11-17T21:03:22.045Z,99499.81
2022-11-17T21:05:58.834Z,99495.47
2022-11-17T21:08:27.201Z,99496.25
2022-11-17T21:11:01.772Z,99509.91
2022-11-17T21:13:30.394Z,99511.00
2022-11-17T21:16:05.126Z,99512.69
2022-11-17T21:18:31.937Z,99523.97
2022-11-17T21:21:04.530Z,99528.44
2022-11-17T21:23:31.039Z,99517.03
2022-11-17T21:25:57.628Z,99512.56
2022-11-17T21:28:24.124Z,99514.56
2022-11-17T21:30:50.716Z,99515.56
2022-11-17T21:33:17.204Z,99514.00
2022-11-17T21:35:43.631Z,99520.16
2022-11-17T21:38:11.099Z,99520.22
2022-11-17T21:40:37.763Z,99505.72
2022-11-17T21:43:04.517Z,99497.88
2022-11-17T21:45:32.656Z,99505.41
2022-11-17T21:47:59.615Z,99501.91
2022-11-17T21:50:26.261Z,99500.94
2022-11-17T21:52:52.681Z,99496.44
2022-11-17T21:55:19.177Z,99472.41
2022-11-17T21:57:45.670Z,99480.38
2022-11-17T22:00:12.496Z,99462.44
2022-11-17T22:02:38.989Z,99453.72
2022-11-17T22:05:05.899Z,99452.63
2022-11-17T22:07:32.500Z,99449.94
2022-11-17T22:09:59.095Z,99444.13
2022-11-17T22:12:26.543Z,99447.56
2022-11-17T22:14:52.967Z,99435.50
2022-11-17T22:17:19.439Z,99411.34
2022-11-17T22:19:45.869Z,99410.47
2022-11-17T22:22:12.299Z,99418.66
2022-11-17T22:24:39.885Z,99416.69
2022-11-17T22:27:06.688Z,99414.00
2022-11-17T22:29:33.361Z,99430.31
2022-11-17T22:31:59.952Z,99435.78
2022-11-17T22:34:26.485Z,99454.47
2022-11-17T22:36:52.974Z,99470.09
2022-11-17T22:39:19.803Z,99465.19
2022-11-17T22:41:46.603Z,99458.25
2022-11-17T22:44:14.418Z,99444.59
2022-11-17T22:46:41.938Z,99446.38
2022-11-17T22:49:09.156Z,99456.28
2022-11-17T22:51:54.165Z,99469.69
2022-11-17T22:54:20.654Z,99475.72
2022-11-17T22:56:47.225Z,99475.84
2022-11-17T22:59:13.987Z,99464.75
2022-11-17T23:01:41.776Z,99460.41
2022-11-17T23:04:08.231Z,99471.47
2022-11-17T23:06:34.695Z,99473.84
2022-11-17T23:09:01.180Z,99479.69
2022-11-17T23:11:43.133Z,99473.31
2022-11-17T23:14:12.374Z,99474.41
2022-11-17T23:16:39.404Z,99465.91
2022-11-17T23:19:06.888Z,99461.69
2022-11-17T23:21:33.433Z,99443.56
2022-11-17T23:23:59.987Z,99437.41
2022-11-17T23:26:26.492Z,99439.22
2022-11-17T23:28:52.927Z,99429.69
2022-11-17T23:31:19.448Z,99423.56
2022-11-17T23:33:47.688Z,99422.56
2022-11-17T23:36:19.943Z,99422.09
2022-11-17T23:38:47.317Z,99439.53
2022-11-17T23:41:16.250Z,99441.97
2022-11-17T23:43:43.372Z,99444.44
2022-11-17T23:46:12.333Z,99445.44
2022-11-17T23:48:39.137Z,99447.25
2022-11-17T23:51:11.228Z,99437.41
2022-11-17T23:53:37.710Z,99424.13
2022-11-17T23:56:05.313Z,99412.06
2022-11-17T23:58:31.840Z,99400.03
